YMML Airport Information

Runway Information
Runway 09 Length 7500 ft width 148 ft
Elevation 395 ft Threshold 0 ft Heading 94
Runway 27 Length 7500 ft Width 148 ft
Elevation 407 ft Threshold 0 ft Heading 274
Runway 16 Length 11998 ft width 197 ft
Elevation 432 ft Threshold 0 ft Heading 171
Runway 34 Length 11998 ft Width 197 ft
Elevation 330 ft Threshold 0 ft Heading 351
Airport Frequencies
Type APP Name APP Frequency 132 MHZ
Type ATIS Name ATIS Frequency 114.1 MHZ
Type CLD Name CLNC DEL Frequency 127.2 MHZ
Type DEP Name DEP Frequency 118.9 MHZ
Type GND Name GND Frequency 121.7 MHZ
Type TWR Name TWR Frequency 120.5 MHZ
Airport Navaids
Type NDB Name Bolinda Frequency 362 KHZ
Type NDB Name Epping Frequency 377 KHZ
Type VOR-DME Name Melbourne Frequency 114100 KHZ
Type NDB Name Rockdale Frequency 338 KHZ
Airport Weather Information & NOTAM
ADDS - METARS form results

(0852 UTC 24 April 2018)
 
METAR text: YMML 240830Z 36011KT CAVOK 20/11 Q1015 NOSIG
Conditions at: YMML (MELBOURNE INTL A, AU) observed 0830 UTC 24 April 2018
Temperature: 20.0°C (68°F)
Dewpoint: 11.0°C (52°F) [RH = 56%]
Pressure (altimeter): 29.97 inches Hg (1015.0 mb)
Winds: from the N (360 degrees) at 13 MPH (11 knots; 5.7 m/s)
Visibility: 6 or more miles (10+ km)
Ceiling: ceiling and visibility are OK
Clouds: unknown
Weather: no significant weather observed at this time

METAR text: YMML 240800Z 02014KT 9999 -RA NSC 19/13 Q1015
Conditions at: YMML (MELBOURNE INTL A, AU) observed 0800 UTC 24 April 2018
Temperature: 19.0°C (66°F)
Dewpoint: 13.0°C (55°F) [RH = 68%]
Pressure (altimeter): 29.97 inches Hg (1015.0 mb)
Winds: from the NNE (20 degrees) at 16 MPH (14 knots; 7.3 m/s)
Visibility: 6 or more miles (10+ km)
Ceiling: at least 12,000 feet AGL
Clouds: sky clear below 12,000 feet AGL
Weather: -RA  (light rain)